createdAt,value
2019-04-30T00:01:55.754Z,105.58
2019-04-30T00:04:30.025Z,106.12
2019-04-30T00:06:59.636Z,110.08
2019-04-30T00:09:32.209Z,116.53
2019-04-30T00:12:05.625Z,109.65
2019-04-30T00:14:41.093Z,112.12
2019-04-30T00:17:16.029Z,108.87
2019-04-30T00:19:45.924Z,101.45
2019-04-30T00:22:30.498Z,114.12
2019-04-30T00:24:51.459Z,102.53
2019-04-30T00:27:26.409Z,112.32
2019-04-30T00:30:00.371Z,101.47
2019-04-30T00:32:31.184Z,110.35
2019-04-30T00:35:03.097Z,101.65
2019-04-30T00:37:35.371Z,92.78
2019-04-30T00:40:07.631Z,72.00
2019-04-30T00:45:11.013Z,87.10
2019-04-30T00:50:15.601Z,93.22
2019-04-30T00:52:47.457Z,95.05
2019-04-30T00:55:19.432Z,97.20
2019-04-30T00:57:51.377Z,103.35
2019-04-30T01:00:25.952Z,86.57
2019-04-30T01:03:09.390Z,92.02
2019-04-30T01:05:46.498Z,94.10
2019-04-30T01:08:15.428Z,101.00
2019-04-30T01:10:47.658Z,95.45
2019-04-30T01:13:19.506Z,98.37
2019-04-30T01:15:52.611Z,103.60
2019-04-30T01:18:28.609Z,99.40
2019-04-30T01:20:58.780Z,101.25
2019-04-30T01:23:31.651Z,100.50
2019-04-30T01:26:03.959Z,93.12
2019-04-30T01:28:35.723Z,106.17
2019-04-30T01:31:09.032Z,98.80
2019-04-30T01:33:40.928Z,105.85
2019-04-30T01:36:13.555Z,103.40
2019-04-30T01:38:49.078Z,97.57
2019-04-30T01:41:20.241Z,109.50
2019-04-30T01:43:53.013Z,116.80
2019-04-30T01:46:25.014Z,117.05
2019-04-30T01:48:58.514Z,112.95
2019-04-30T01:51:31.042Z,121.87
2019-04-30T01:54:02.941Z,116.67
2019-04-30T01:56:38.801Z,111.88
2019-04-30T01:59:24.222Z,113.12
2019-04-30T02:01:56.245Z,111.20
2019-04-30T02:04:28.983Z,108.03
2019-04-30T02:07:02.119Z,106.22
2019-04-30T02:09:33.955Z,107.45
2019-04-30T02:12:05.874Z,99.70
2019-04-30T02:14:39.482Z,110.95
2019-04-30T02:17:11.754Z,110.12
2019-04-30T02:19:54.171Z,100.05
2019-04-30T02:22:18.834Z,106.12
2019-04-30T02:24:50.949Z,109.03
2019-04-30T02:27:23.006Z,115.17
2019-04-30T02:29:55.104Z,111.15
2019-04-30T02:32:26.986Z,106.78
2019-04-30T02:35:12.210Z,115.55
2019-04-30T02:37:55.851Z,109.87
2019-04-30T02:40:45.633Z,117.57
2019-04-30T02:43:20.345Z,118.25
2019-04-30T02:45:54.542Z,113.85
2019-04-30T02:48:29.552Z,131.55
2019-04-30T02:51:03.914Z,127.72
2019-04-30T02:53:50.910Z,124.18
2019-04-30T02:56:26.669Z,128.90
2019-04-30T02:59:03.215Z,128.40
2019-04-30T03:01:31.371Z,137.65
2019-04-30T03:04:03.586Z,137.28
2019-04-30T03:06:35.654Z,132.05
2019-04-30T03:09:10.304Z,126.70
2019-04-30T03:11:41.446Z,132.50
2019-04-30T03:14:13.203Z,141.30
2019-04-30T03:19:29.471Z,156.80
2019-04-30T03:22:05.461Z,138.52
2019-04-30T03:24:42.244Z,154.97
2019-04-30T03:27:12.162Z,143.17
2019-04-30T03:29:44.037Z,165.33
2019-04-30T03:32:16.182Z,171.15
2019-04-30T03:34:51.773Z,238.90
2019-04-30T03:37:21.346Z,176.95
2019-04-30T03:39:53.334Z,207.12
2019-04-30T03:42:25.872Z,170.30
2019-04-30T03:44:59.257Z,180.70
2019-04-30T03:47:31.055Z,180.20
2019-04-30T03:50:03.174Z,190.47
2019-04-30T03:55:09.311Z,192.40
2019-04-30T03:57:40.976Z,185.12
2019-04-30T04:00:14.660Z,200.80
2019-04-30T04:02:49.857Z,197.07
2019-04-30T04:05:25.526Z,186.55
2019-04-30T04:08:04.833Z,172.72
2019-04-30T04:10:40.251Z,185.22
2019-04-30T04:13:12.263Z,163.07
2019-04-30T04:15:44.317Z,192.82
2019-04-30T04:18:16.641Z,157.95
2019-04-30T04:23:21.360Z,138.25
2019-04-30T04:25:53.193Z,113.05
2019-04-30T04:28:25.604Z,119.25
2019-04-30T04:31:00.121Z,113.55
2019-04-30T04:33:31.229Z,106.50
2019-04-30T04:38:34.455Z,106.27
2019-04-30T04:41:10.084Z,120.02
2019-04-30T04:43:40.711Z,130.78
2019-04-30T04:46:12.694Z,126.90
2019-04-30T04:48:44.797Z,126.27
2019-04-30T04:51:31.306Z,136.77
2019-04-30T04:53:50.434Z,135.10
2019-04-30T04:56:22.190Z,126.10
2019-04-30T04:58:54.278Z,132.20
2019-04-30T05:01:28.775Z,132.00
2019-04-30T05:04:00.443Z,131.50
2019-04-30T05:06:32.142Z,136.47
2019-04-30T05:09:05.409Z,150.18
2019-04-30T05:11:39.443Z,139.20
2019-04-30T05:14:11.142Z,185.95
2019-04-30T05:16:42.785Z,159.15
2019-04-30T05:19:15.054Z,190.28
2019-04-30T05:21:46.879Z,173.93
2019-04-30T05:24:19.136Z,186.85
2019-04-30T05:26:50.842Z,226.12
2019-04-30T05:29:22.979Z,206.38
2019-04-30T05:31:54.992Z,227.68
2019-04-30T05:34:28.839Z,218.35
2019-04-30T05:37:01.009Z,208.57
2019-04-30T05:39:33.069Z,216.00
2019-04-30T05:42:04.884Z,215.28
2019-04-30T05:44:37.052Z,220.15
2019-04-30T05:47:09.302Z,208.30
2019-04-30T05:50:13.946Z,208.07
2019-04-30T05:52:49.139Z,194.93
2019-04-30T05:55:21.825Z,208.45
2019-04-30T05:57:56.525Z,216.42
2019-04-30T06:00:30.266Z,231.28
2019-04-30T06:03:00.972Z,233.95
2019-04-30T06:05:32.803Z,261.10
2019-04-30T06:08:05.761Z,262.93
2019-04-30T06:10:39.623Z,263.10
2019-04-30T06:13:13.003Z,259.02
2019-04-30T06:15:46.523Z,277.98
2019-04-30T06:18:20.318Z,266.10
2019-04-30T06:20:52.280Z,297.88
2019-04-30T06:23:24.635Z,304.40
2019-04-30T06:26:00.600Z,309.02
2019-04-30T06:28:31.107Z,304.90
2019-04-30T06:31:03.065Z,310.10
2019-04-30T06:33:35.314Z,286.43
2019-04-30T06:36:08.537Z,279.68
2019-04-30T06:38:41.329Z,258.43
2019-04-30T06:41:13.502Z,269.65
2019-04-30T06:43:45.778Z,232.75
2019-04-30T06:46:18.685Z,178.62
2019-04-30T06:48:51.517Z,127.47
2019-04-30T06:51:23.380Z,100.60
2019-04-30T06:53:55.784Z,87.53
2019-04-30T06:56:28.949Z,83.25
2019-04-30T06:59:00.986Z,80.17
2019-04-30T07:01:32.524Z,76.07
2019-04-30T07:04:04.663Z,66.80
2019-04-30T07:06:37.103Z,63.35
2019-04-30T07:09:26.690Z,65.52
2019-04-30T07:12:09.780Z,75.00
2019-04-30T07:14:41.939Z,64.03
2019-04-30T07:19:54.216Z,63.40
2019-04-30T07:22:20.685Z,65.35
2019-04-30T07:24:52.194Z,59.77
2019-04-30T07:27:24.414Z,56.80
2019-04-30T07:32:28.765Z,57.50
2019-04-30T07:35:00.766Z,58.28
2019-04-30T07:40:03.725Z,49.75
2019-04-30T07:42:39.813Z,51.88
2019-04-30T07:45:09.672Z,44.58
2019-04-30T07:47:41.548Z,57.03
2019-04-30T07:50:14.283Z,56.50
2019-04-30T07:55:20.173Z,50.35
2019-04-30T07:57:52.184Z,56.02
2019-04-30T08:00:24.486Z,63.48
2019-04-30T08:03:14.649Z,47.20
2019-04-30T08:05:49.855Z,51.80
2019-04-30T08:08:25.404Z,58.75
2019-04-30T08:09:35.523Z,54.83
2019-04-30T08:10:56.256Z,75.05
2019-04-30T08:13:31.840Z,111.72
2019-04-30T08:16:02.071Z,128.95
2019-04-30T08:18:34.102Z,146.70
2019-04-30T08:23:39.207Z,138.22
2019-04-30T08:26:10.650Z,133.00
2019-04-30T08:28:42.348Z,110.90
2019-04-30T08:31:15.653Z,90.10
2019-04-30T08:33:49.034Z,79.27
2019-04-30T08:36:21.008Z,71.55
2019-04-30T08:38:52.975Z,62.45
2019-04-30T08:41:25.027Z,60.67
2019-04-30T08:43:57.091Z,60.63
2019-04-30T08:49:00.917Z,55.38
2019-04-30T08:51:32.714Z,50.90
2019-04-30T08:54:04.740Z,59.30
2019-04-30T08:56:36.517Z,53.30
2019-04-30T08:59:10.986Z,56.30
2019-04-30T09:01:41.768Z,62.50
2019-04-30T09:04:13.730Z,56.92
2019-04-30T09:06:45.718Z,57.90
2019-04-30T09:09:18.868Z,56.20
2019-04-30T09:11:55.457Z,53.20
2019-04-30T09:14:24.599Z,50.78
2019-04-30T09:16:56.532Z,60.55
2019-04-30T09:19:29.792Z,67.72
2019-04-30T09:22:02.063Z,74.37
2019-04-30T09:24:34.011Z,101.80
2019-04-30T09:27:05.900Z,90.50
2019-04-30T09:29:39.154Z,84.25
2019-04-30T09:32:11.137Z,87.15
2019-04-30T09:34:43.882Z,94.00
2019-04-30T09:37:16.011Z,92.33
2019-04-30T09:39:49.419Z,109.30
2019-04-30T09:42:21.650Z,116.10
2019-04-30T09:44:57.014Z,120.53
2019-04-30T09:47:29.427Z,116.45
2019-04-30T09:50:01.225Z,115.70
2019-04-30T09:52:35.909Z,118.17
2019-04-30T09:55:09.421Z,118.65
2019-04-30T09:57:40.664Z,117.97
2019-04-30T10:00:13.515Z,118.97
2019-04-30T10:02:45.247Z,121.57
2019-04-30T10:05:19.543Z,104.95
2019-04-30T10:07:51.222Z,123.67
2019-04-30T10:10:25.617Z,109.65
2019-04-30T10:12:59.290Z,113.05
2019-04-30T10:15:35.633Z,95.87
2019-04-30T10:18:07.696Z,94.00
2019-04-30T10:20:42.054Z,84.80
2019-04-30T10:23:13.686Z,92.88
2019-04-30T10:25:46.728Z,87.50
2019-04-30T10:28:19.658Z,96.25
2019-04-30T10:30:51.465Z,95.42
2019-04-30T10:33:23.337Z,87.35
2019-04-30T10:35:55.294Z,93.22
2019-04-30T10:38:26.980Z,97.12
2019-04-30T10:40:59.424Z,93.62
2019-04-30T10:43:32.026Z,92.05
2019-04-30T10:48:34.798Z,90.17
2019-04-30T10:51:06.671Z,86.85
2019-04-30T10:53:38.194Z,85.17
2019-04-30T10:56:10.738Z,88.67
2019-04-30T10:58:42.665Z,81.22
2019-04-30T11:01:14.617Z,79.15
2019-04-30T11:03:46.300Z,80.17
2019-04-30T11:06:19.197Z,81.57
2019-04-30T11:08:51.115Z,81.00
2019-04-30T11:11:23.180Z,79.07
2019-04-30T11:16:26.025Z,70.40
2019-04-30T11:18:59.210Z,72.00
2019-04-30T11:21:31.666Z,74.00
2019-04-30T11:26:35.225Z,68.95
2019-04-30T11:29:07.769Z,63.80
2019-04-30T11:31:41.403Z,64.80
2019-04-30T11:34:13.529Z,62.73
2019-04-30T11:36:45.171Z,73.95
2019-04-30T11:39:18.677Z,55.70
2019-04-30T11:41:50.678Z,61.35
2019-04-30T11:44:36.001Z,62.40
2019-04-30T11:47:02.338Z,58.70
2019-04-30T11:49:34.295Z,64.65
2019-04-30T11:52:06.429Z,72.12
2019-04-30T11:57:11.309Z,48.17
2019-04-30T11:59:43.054Z,52.50
2019-04-30T12:02:19.066Z,51.73
2019-04-30T12:04:50.751Z,50.75
2019-04-30T12:07:33.505Z,60.48
2019-04-30T12:12:53.514Z,40.90
2019-04-30T12:15:25.562Z,56.33
2019-04-30T12:17:57.553Z,57.03
2019-04-30T12:20:29.524Z,54.45
2019-04-30T12:23:01.818Z,58.42
2019-04-30T12:25:33.644Z,53.45
2019-04-30T12:28:05.795Z,51.00
2019-04-30T12:30:39.140Z,54.73
2019-04-30T12:33:10.953Z,53.42
2019-04-30T12:35:42.780Z,46.00
2019-04-30T12:38:15.282Z,46.58
2019-04-30T12:40:47.189Z,43.38
2019-04-30T12:43:19.301Z,46.23
2019-04-30T12:46:02.292Z,40.95
2019-04-30T12:48:31.718Z,46.80
2019-04-30T12:51:05.525Z,37.05
2019-04-30T12:53:39.164Z,39.08
2019-04-30T12:56:16.713Z,38.08
2019-04-30T12:58:48.382Z,41.35
2019-04-30T13:01:20.243Z,40.70
2019-04-30T13:03:58.624Z,37.23
2019-04-30T13:06:26.953Z,36.70
2019-04-30T13:09:00.396Z,35.98
2019-04-30T13:11:34.009Z,40.85
2019-04-30T13:14:07.725Z,39.18
2019-04-30T13:16:40.233Z,30.32
2019-04-30T13:19:15.247Z,34.18
2019-04-30T13:21:47.060Z,36.80
2019-04-30T13:24:18.969Z,34.85
2019-04-30T13:26:50.842Z,34.80
2019-04-30T13:29:27.009Z,35.23
2019-04-30T13:31:58.651Z,35.23
2019-04-30T13:34:47.496Z,39.85
2019-04-30T13:37:19.461Z,35.00
2019-04-30T13:40:01.871Z,32.38
2019-04-30T13:42:51.679Z,32.23
2019-04-30T13:45:23.411Z,34.43
2019-04-30T13:47:55.482Z,32.20
2019-04-30T13:50:29.229Z,28.85
2019-04-30T13:53:01.562Z,33.02
2019-04-30T13:55:42.915Z,32.15
2019-04-30T13:58:06.659Z,44.27
2019-04-30T14:00:39.711Z,29.92
2019-04-30T14:03:13.353Z,28.92
2019-04-30T14:05:45.312Z,29.70
2019-04-30T14:08:21.561Z,26.93
2019-04-30T14:10:53.514Z,27.85
2019-04-30T14:13:26.822Z,31.55
2019-04-30T14:15:58.852Z,38.65
2019-04-30T14:18:33.940Z,34.27
2019-04-30T14:21:04.533Z,37.15
2019-04-30T14:26:09.328Z,30.00
2019-04-30T14:28:41.428Z,26.93
2019-04-30T14:31:13.504Z,24.57
2019-04-30T14:33:45.278Z,26.37
2019-04-30T14:36:19.367Z,28.20
2019-04-30T14:38:51.229Z,24.92
2019-04-30T14:41:23.588Z,30.70
2019-04-30T14:44:00.875Z,26.10
2019-04-30T14:46:47.650Z,22.73
2019-04-30T14:49:23.407Z,27.30
2019-04-30T14:51:56.333Z,22.67
2019-04-30T14:54:32.104Z,22.62
2019-04-30T14:57:05.198Z,20.05
2019-04-30T14:59:44.117Z,19.65
2019-04-30T15:02:23.614Z,20.25
2019-04-30T15:04:55.316Z,24.27
2019-04-30T15:07:29.439Z,26.62
2019-04-30T15:10:01.184Z,26.25
2019-04-30T15:12:34.884Z,21.48
2019-04-30T15:15:09.172Z,21.15
2019-04-30T15:17:41.750Z,18.48
2019-04-30T15:20:13.621Z,16.80
2019-04-30T15:22:48.423Z,21.57
2019-04-30T15:25:20.497Z,24.70
2019-04-30T15:27:52.564Z,20.92
2019-04-30T15:30:24.073Z,20.77
2019-04-30T15:33:00.543Z,18.50
2019-04-30T15:35:32.255Z,24.40
2019-04-30T15:38:04.416Z,22.60
2019-04-30T15:40:36.092Z,22.02
2019-04-30T15:43:08.941Z,23.62
2019-04-30T15:45:40.706Z,25.75
2019-04-30T15:48:13.254Z,24.47
2019-04-30T15:50:45.121Z,29.75
2019-04-30T15:53:17.168Z,23.92
2019-04-30T15:55:49.393Z,26.30
2019-04-30T15:58:23.255Z,34.55
2019-04-30T16:00:55.219Z,46.20
2019-04-30T16:03:34.729Z,54.08
2019-04-30T16:06:08.357Z,52.88
2019-04-30T16:08:41.786Z,55.28
2019-04-30T16:11:31.051Z,55.33
2019-04-30T16:14:22.889Z,64.35
2019-04-30T16:16:56.108Z,62.15
2019-04-30T16:19:28.834Z,63.60
2019-04-30T16:22:00.945Z,67.62
2019-04-30T16:24:33.326Z,67.32
2019-04-30T16:27:05.675Z,65.50
2019-04-30T16:29:38.727Z,65.32
2019-04-30T16:32:12.005Z,62.45
2019-04-30T16:34:44.019Z,62.65
2019-04-30T16:37:15.817Z,72.78
2019-04-30T16:39:47.716Z,73.42
2019-04-30T16:42:19.598Z,68.55
2019-04-30T16:44:51.586Z,68.65
2019-04-30T16:47:23.198Z,76.82
2019-04-30T16:49:55.354Z,75.45
2019-04-30T16:52:27.031Z,77.90
2019-04-30T16:54:59.112Z,75.97
2019-04-30T16:57:30.792Z,89.28
2019-04-30T17:00:03.023Z,79.72
2019-04-30T17:02:36.420Z,79.75
2019-04-30T17:05:21.789Z,79.62
2019-04-30T17:07:59.276Z,81.78
2019-04-30T17:10:44.842Z,83.20
2019-04-30T17:13:29.909Z,80.22
2019-04-30T17:16:03.659Z,87.88
2019-04-30T17:18:35.258Z,82.67
2019-04-30T17:21:07.238Z,78.72
2019-04-30T17:23:38.995Z,81.63
2019-04-30T17:26:11.401Z,80.32
2019-04-30T17:28:43.274Z,82.37
2019-04-30T17:31:15.079Z,85.50
2019-04-30T17:33:47.489Z,97.12
2019-04-30T17:36:19.249Z,106.30
2019-04-30T17:38:50.927Z,104.40
2019-04-30T17:41:23.165Z,93.90
2019-04-30T17:43:54.759Z,91.42
2019-04-30T17:46:28.473Z,86.10
2019-04-30T17:48:59.978Z,92.85
2019-04-30T17:51:31.744Z,85.85
2019-04-30T17:54:14.430Z,100.62
2019-04-30T17:56:46.890Z,87.82
2019-04-30T17:59:18.900Z,97.42
2019-04-30T18:01:53.313Z,88.72
2019-04-30T18:04:25.025Z,79.72
2019-04-30T18:06:59.076Z,74.47
2019-04-30T18:09:30.626Z,83.17
2019-04-30T18:12:02.447Z,81.15
2019-04-30T18:14:34.239Z,86.17
2019-04-30T18:17:05.863Z,93.03
2019-04-30T18:19:41.992Z,84.07
2019-04-30T18:22:19.489Z,89.37
2019-04-30T18:24:59.308Z,78.30
2019-04-30T18:27:42.961Z,92.65
2019-04-30T18:30:08.528Z,90.15
2019-04-30T18:32:40.137Z,87.88
2019-04-30T18:35:12.041Z,94.15
2019-04-30T18:37:44.050Z,95.07
2019-04-30T18:40:18.606Z,86.45
2019-04-30T18:42:50.187Z,85.92
2019-04-30T18:45:22.349Z,89.52
2019-04-30T18:47:54.144Z,89.05
2019-04-30T18:50:26.407Z,87.50
2019-04-30T18:52:59.703Z,92.97
2019-04-30T18:55:31.672Z,81.32
2019-04-30T18:58:03.624Z,83.78
2019-04-30T19:00:39.406Z,81.55
2019-04-30T19:03:10.840Z,101.12
2019-04-30T19:05:44.285Z,87.90
2019-04-30T19:08:34.015Z,93.00
2019-04-30T19:11:08.988Z,83.52
2019-04-30T19:13:45.509Z,82.35
2019-04-30T19:16:24.753Z,86.65
2019-04-30T19:19:09.449Z,89.70
2019-04-30T19:21:42.033Z,88.97
2019-04-30T19:24:13.770Z,84.87
2019-04-30T19:26:45.894Z,82.62
2019-04-30T19:29:17.385Z,79.82
2019-04-30T19:31:49.546Z,90.90
2019-04-30T19:34:21.206Z,92.90
2019-04-30T19:36:54.053Z,121.20
2019-04-30T19:39:26.022Z,117.55
2019-04-30T19:41:58.403Z,127.87
2019-04-30T19:44:31.512Z,135.75
2019-04-30T19:47:03.530Z,113.32
2019-04-30T19:49:35.230Z,126.18
2019-04-30T19:52:09.345Z,118.47
2019-04-30T19:54:40.655Z,145.53
2019-04-30T19:57:15.345Z,129.82
2019-04-30T19:59:46.912Z,135.75
2019-04-30T20:02:19.134Z,162.77
2019-04-30T20:04:52.041Z,153.70
2019-04-30T20:07:23.977Z,146.72
2019-04-30T20:10:03.227Z,152.97
2019-04-30T20:12:30.244Z,153.87
2019-04-30T20:15:02.196Z,138.88
2019-04-30T20:17:34.293Z,129.60
2019-04-30T20:20:10.955Z,131.85
2019-04-30T20:22:42.983Z,143.75
2019-04-30T20:25:14.592Z,122.67
2019-04-30T20:27:46.437Z,131.90
2019-04-30T20:30:19.546Z,141.15
2019-04-30T20:32:51.534Z,141.97
2019-04-30T20:35:23.447Z,131.57
2019-04-30T20:38:12.728Z,140.65
2019-04-30T20:40:57.800Z,128.60
2019-04-30T20:43:20.098Z,117.37
2019-04-30T20:45:52.172Z,125.62
2019-04-30T20:48:23.976Z,133.72
2019-04-30T20:50:56.057Z,138.40
2019-04-30T20:53:27.952Z,136.75
2019-04-30T20:56:00.156Z,137.18
2019-04-30T20:58:31.909Z,123.10
2019-04-30T21:01:06.633Z,122.25
2019-04-30T21:03:39.830Z,129.72
2019-04-30T21:06:11.704Z,124.25
2019-04-30T21:08:43.515Z,126.85
2019-04-30T21:11:15.602Z,122.70
2019-04-30T21:13:49.118Z,108.07
2019-04-30T21:16:21.301Z,126.27
2019-04-30T21:18:52.912Z,123.78
2019-04-30T21:21:25.027Z,121.82
2019-04-30T21:23:57.069Z,105.92
2019-04-30T21:26:29.757Z,109.78
2019-04-30T21:29:11.142Z,104.35
2019-04-30T21:31:36.430Z,106.67
2019-04-30T21:34:10.129Z,93.92
2019-04-30T21:36:42.105Z,107.55
2019-04-30T21:39:13.936Z,115.75
2019-04-30T21:41:45.991Z,76.05
2019-04-30T21:44:18.431Z,94.22
2019-04-30T21:49:20.731Z,87.67
2019-04-30T21:51:52.429Z,94.80
2019-04-30T21:54:24.456Z,99.17
2019-04-30T21:56:56.376Z,86.63
2019-04-30T21:59:28.739Z,95.10
2019-04-30T22:02:01.528Z,94.95
2019-04-30T22:04:33.354Z,94.17
2019-04-30T22:07:05.386Z,95.97
2019-04-30T22:09:37.261Z,93.27
2019-04-30T22:12:09.286Z,100.05
2019-04-30T22:14:41.194Z,111.90
2019-04-30T22:17:13.694Z,117.77
2019-04-30T22:19:45.165Z,128.35
2019-04-30T22:22:17.092Z,154.20
2019-04-30T22:24:49.719Z,155.90
2019-04-30T22:27:21.869Z,138.95
2019-04-30T22:29:53.486Z,146.20
2019-04-30T22:32:25.292Z,134.07
2019-04-30T22:34:58.674Z,139.50
2019-04-30T22:37:30.537Z,170.43
2019-04-30T22:40:04.271Z,135.48
2019-04-30T22:42:36.689Z,163.52
2019-04-30T22:45:11.719Z,185.52
2019-04-30T22:47:43.333Z,133.97
2019-04-30T22:50:15.303Z,137.12
2019-04-30T22:52:46.805Z,143.05
2019-04-30T22:55:18.972Z,139.18
2019-04-30T22:57:50.506Z,138.30
2019-04-30T23:00:23.834Z,144.57
2019-04-30T23:02:59.773Z,140.35
2019-04-30T23:05:31.728Z,130.67
2019-04-30T23:08:03.373Z,139.50
2019-04-30T23:10:35.716Z,132.55
2019-04-30T23:13:07.831Z,117.70
2019-04-30T23:15:40.339Z,92.70
2019-04-30T23:18:11.949Z,139.18
2019-04-30T23:20:44.046Z,123.67
2019-04-30T23:23:15.563Z,125.38
2019-04-30T23:25:47.529Z,131.50
2019-04-30T23:28:19.937Z,140.43
2019-04-30T23:30:51.868Z,113.80
2019-04-30T23:33:23.852Z,113.65
2019-04-30T23:35:55.524Z,123.10
2019-04-30T23:38:27.770Z,135.57
2019-04-30T23:40:59.409Z,134.12
2019-04-30T23:43:31.368Z,128.60
2019-04-30T23:46:02.880Z,144.62
2019-04-30T23:48:34.896Z,129.87
2019-04-30T23:51:06.845Z,131.75
2019-04-30T23:53:38.653Z,135.85
2019-04-30T23:56:10.261Z,127.87
2019-04-30T23:58:43.399Z,144.57
